sensor_id;sensor_type;location;lat;lon;timestamp;pressure;altitude;pressure_sealevel;temperature;humidity
70445;BME280;57902;49.638;11.070;2023-02-18T00:01:56;98937.22;;;10.28;100.00
70445;BME280;57902;49.638;11.070;2023-02-18T00:04:22;98931.13;;;10.30;100.00
70445;BME280;57902;49.638;11.070;2023-02-18T00:06:49;98936.28;;;10.30;100.00
70445;BME280;57902;49.638;11.070;2023-02-18T00:09:15;98938.84;;;10.30;100.00
70445;BME280;57902;49.638;11.070;2023-02-18T00:11:42;98935.44;;;10.30;100.00
70445;BME280;57902;49.638;11.070;2023-02-18T00:14:11;98938.03;;;10.28;100.00
70445;BME280;57902;49.638;11.070;2023-02-18T00:16:39;98939.75;;;10.29;100.00
70445;BME280;57902;49.638;11.070;2023-02-18T00:19:07;98932.81;;;10.35;100.00
70445;BME280;57902;49.638;11.070;2023-02-18T00:21:36;98934.41;;;10.42;100.00
70445;BME280;57902;49.638;11.070;2023-02-18T00:24:04;98933.50;;;10.44;100.00
70445;BME280;57902;49.638;11.070;2023-02-18T00:26:31;98940.38;;;10.45;100.00
70445;BME280;57902;49.638;11.070;2023-02-18T00:28:58;98935.25;;;10.41;100.00
70445;BME280;57902;49.638;11.070;2023-02-18T00:31:28;98937.94;;;10.36;100.00
70445;BME280;57902;49.638;11.070;2023-02-18T00:33:56;98936.91;;;10.45;100.00
70445;BME280;57902;49.638;11.070;2023-02-18T00:36:23;98940.38;;;10.44;100.00
70445;BME280;57902;49.638;11.070;2023-02-18T00:38:52;98942.94;;;10.44;100.00
70445;BME280;57902;49.638;11.070;2023-02-18T00:41:20;98937.91;;;10.38;100.00
70445;BME280;57902;49.638;11.070;2023-02-18T00:43:47;98934.53;;;10.34;100.00
70445;BME280;57902;49.638;11.070;2023-02-18T00:46:14;98938.84;;;10.35;100.00
70445;BME280;57902;49.638;11.070;2023-02-18T00:48:41;98939.66;;;10.36;100.00
70445;BME280;57902;49.638;11.070;2023-02-18T00:51:07;98937.13;;;10.32;100.00
70445;BME280;57902;49.638;11.070;2023-02-18T00:53:34;98928.56;;;10.30;100.00
70445;BME280;57902;49.638;11.070;2023-02-18T00:56:01;98934.66;;;10.26;100.00
70445;BME280;57902;49.638;11.070;2023-02-18T00:58:28;98924.34;;;10.26;100.00
70445;BME280;57902;49.638;11.070;2023-02-18T01:00:54;98933.06;;;10.19;100.00
70445;BME280;57902;49.638;11.070;2023-02-18T01:03:21;98933.94;;;10.18;100.00
70445;BME280;57902;49.638;11.070;2023-02-18T01:05:49;98926.22;;;10.16;100.00
70445;BME280;57902;49.638;11.070;2023-02-18T01:08:17;98930.56;;;10.16;100.00
70445;BME280;57902;49.638;11.070;2023-02-18T01:10:46;98930.56;;;10.13;100.00
70445;BME280;57902;49.638;11.070;2023-02-18T01:13:14;98927.06;;;10.17;100.00
70445;BME280;57902;49.638;11.070;2023-02-18T01:15:41;98927.97;;;10.16;100.00
70445;BME280;57902;49.638;11.070;2023-02-18T01:18:09;98927.16;;;10.12;100.00
70445;BME280;57902;49.638;11.070;2023-02-18T01:20:37;98921.28;;;10.06;100.00
70445;BME280;57902;49.638;11.070;2023-02-18T01:23:04;98919.66;;;10.00;100.00
70445;BME280;57902;49.638;11.070;2023-02-18T01:25:31;98923.06;;;10.01;100.00
70445;BME280;57902;49.638;11.070;2023-02-18T01:27:58;98927.41;;;9.98;100.00
70445;BME280;57902;49.638;11.070;2023-02-18T01:30:25;98924.81;;;10.00;100.00
70445;BME280;57902;49.638;11.070;2023-02-18T01:32:51;98924.00;;;9.96;100.00
70445;BME280;57902;49.638;11.070;2023-02-18T01:35:20;98931.72;;;9.96;100.00
70445;BME280;57902;49.638;11.070;2023-02-18T01:37:47;98929.19;;;9.93;100.00
70445;BME280;57902;49.638;11.070;2023-02-18T01:40:15;98922.25;;;9.98;100.00
70445;BME280;57902;49.638;11.070;2023-02-18T01:42:42;98937.59;;;10.05;100.00
70445;BME280;57902;49.638;11.070;2023-02-18T01:48:05;98910.81;;;10.15;100.00
70445;BME280;57902;49.638;11.070;2023-02-18T01:50:35;98921.16;;;10.12;100.00
70445;BME280;57902;49.638;11.070;2023-02-18T01:53:02;98923.84;;;10.06;100.00
70445;BME280;57902;49.638;11.070;2023-02-18T01:55:29;98932.44;;;10.05;100.00
70445;BME280;57902;49.638;11.070;2023-02-18T01:57:56;98924.69;;;10.06;100.00
70445;BME280;57902;49.638;11.070;2023-02-18T02:00:23;98930.72;;;10.05;100.00
70445;BME280;57902;49.638;11.070;2023-02-18T02:02:51;98925.53;;;10.07;100.00
70445;BME280;57902;49.638;11.070;2023-02-18T02:05:20;98914.41;;;10.05;100.00
70445;BME280;57902;49.638;11.070;2023-02-18T02:07:49;98911.88;;;10.03;100.00
70445;BME280;57902;49.638;11.070;2023-02-18T02:10:17;98916.13;;;10.04;100.00
70445;BME280;57902;49.638;11.070;2023-02-18T02:12:55;98911.72;;;10.11;100.00
70445;BME280;57902;49.638;11.070;2023-02-18T02:15:41;98898.00;;;10.10;100.00
70445;BME280;57902;49.638;11.070;2023-02-18T02:24:22;98905.97;;;9.96;100.00
70445;BME280;57902;49.638;11.070;2023-02-18T02:37:42;98886.47;;;9.81;100.00
70445;BME280;57902;49.638;11.070;2023-02-18T02:40:29;98886.47;;;9.81;100.00
70445;BME280;57902;49.638;11.070;2023-02-18T02:43:17;98888.34;;;9.72;100.00
70445;BME280;57902;49.638;11.070;2023-02-18T02:48:48;98881.50;;;9.72;100.00
70445;BME280;57902;49.638;11.070;2023-02-18T02:51:20;98877.28;;;9.67;100.00
70445;BME280;57902;49.638;11.070;2023-02-18T02:53:49;98875.56;;;9.66;100.00
70445;BME280;57902;49.638;11.070;2023-02-18T02:56:23;98876.47;;;9.63;100.00
70445;BME280;57902;49.638;11.070;2023-02-18T02:59:00;98875.69;;;9.59;100.00
70445;BME280;57902;49.638;11.070;2023-02-18T03:04:49;98868.00;;;9.56;100.00
70445;BME280;57902;49.638;11.070;2023-02-18T03:08:24;98872.31;;;9.54;100.00
70445;BME280;57902;49.638;11.070;2023-02-18T03:16:07;98870.81;;;9.41;100.00
70445;BME280;57902;49.638;11.070;2023-02-18T03:19:44;98885.34;;;9.45;100.00
70445;BME280;57902;49.638;11.070;2023-02-18T03:21:59;98873.28;;;9.49;100.00
70445;BME280;57902;49.638;11.070;2023-02-18T03:24:29;98876.75;;;9.46;100.00
70445;BME280;57902;49.638;11.070;2023-02-18T03:27:03;98871.63;;;9.44;100.00
70445;BME280;57902;49.638;11.070;2023-02-18T03:29:32;98882.81;;;9.42;100.00
70445;BME280;57902;49.638;11.070;2023-02-18T03:32:02;98880.19;;;9.45;100.00
70445;BME280;57902;49.638;11.070;2023-02-18T03:34:34;98870.81;;;9.41;100.00
70445;BME280;57902;49.638;11.070;2023-02-18T03:37:03;98874.31;;;9.38;100.00
70445;BME280;57902;49.638;11.070;2023-02-18T03:39:33;98875.03;;;9.45;100.00
70445;BME280;57902;49.638;11.070;2023-02-18T03:42:00;98878.50;;;9.45;100.00
70445;BME280;57902;49.638;11.070;2023-02-18T03:44:26;98878.41;;;9.50;100.00
70445;BME280;57902;49.638;11.070;2023-02-18T03:46:53;98879.28;;;9.49;100.00
70445;BME280;57902;49.638;11.070;2023-02-18T03:49:19;98883.63;;;9.47;100.00
70445;BME280;57902;49.638;11.070;2023-02-18T03:51:46;98875.97;;;9.41;100.00
70445;BME280;57902;49.638;11.070;2023-02-18T03:54:13;98877.59;;;9.46;100.00
70445;BME280;57902;49.638;11.070;2023-02-18T03:56:40;98875.94;;;9.42;100.00
70445;BME280;57902;49.638;11.070;2023-02-18T03:59:08;98879.47;;;9.37;100.00
70445;BME280;57902;49.638;11.070;2023-02-18T04:01:34;98880.34;;;9.36;100.00
70445;BME280;57902;49.638;11.070;2023-02-18T04:04:01;98879.47;;;9.37;100.00
70445;BME280;57902;49.638;11.070;2023-02-18T04:06:28;98880.34;;;9.36;100.00
70445;BME280;57902;49.638;11.070;2023-02-18T04:08:55;98880.38;;;9.34;100.00
70445;BME280;57902;49.638;11.070;2023-02-18T04:11:21;98880.38;;;9.34;100.00
70445;BME280;57902;49.638;11.070;2023-02-18T04:13:48;98885.44;;;9.39;100.00
70445;BME280;57902;49.638;11.070;2023-02-18T04:16:14;98890.59;;;9.39;100.00
70445;BME280;57902;49.638;11.070;2023-02-18T04:18:41;98891.41;;;9.41;100.00
70445;BME280;57902;49.638;11.070;2023-02-18T04:21:07;98888.00;;;9.39;100.00
70445;BME280;57902;49.638;11.070;2023-02-18T04:23:34;98893.16;;;9.39;100.00
70445;BME280;57902;49.638;11.070;2023-02-18T04:26:00;98893.16;;;9.39;100.00
70445;BME280;57902;49.638;11.070;2023-02-18T04:28:27;98887.22;;;9.35;100.00
70445;BME280;57902;49.638;11.070;2023-02-18T04:30:53;98892.44;;;9.29;100.00
70445;BME280;57902;49.638;11.070;2023-02-18T04:33:19;98888.22;;;9.26;100.00
70445;BME280;57902;49.638;11.070;2023-02-18T04:35:46;98885.66;;;9.25;100.00
70445;BME280;57902;49.638;11.070;2023-02-18T04:38:14;98890.75;;;9.28;100.00
70445;BME280;57902;49.638;11.070;2023-02-18T04:40:40;98889.78;;;9.34;100.00
70445;BME280;57902;49.638;11.070;2023-02-18T04:43:07;98882.16;;;9.29;100.00
70445;BME280;57902;49.638;11.070;2023-02-18T04:45:33;98884.72;;;9.29;100.00
70445;BME280;57902;49.638;11.070;2023-02-18T04:47:59;98875.25;;;9.33;100.00
70445;BME280;57902;49.638;11.070;2023-02-18T04:50:26;98882.97;;;9.33;100.00
70445;BME280;57902;49.638;11.070;2023-02-18T04:52:52;98882.97;;;9.33;100.00
70445;BME280;57902;49.638;11.070;2023-02-18T04:55:19;98882.97;;;9.33;100.00
70445;BME280;57902;49.638;11.070;2023-02-18T04:57:45;98883.88;;;9.28;100.00
70445;BME280;57902;49.638;11.070;2023-02-18T05:00:15;98886.41;;;9.32;100.00
70445;BME280;57902;49.638;11.070;2023-02-18T05:02:45;98881.31;;;9.28;100.00
70445;BME280;57902;49.638;11.070;2023-02-18T05:05:12;98876.94;;;9.35;100.00
70445;BME280;57902;49.638;11.070;2023-02-18T05:07:39;98882.09;;;9.32;100.00
70445;BME280;57902;49.638;11.070;2023-02-18T05:10:09;98877.91;;;9.26;100.00
70445;BME280;57902;49.638;11.070;2023-02-18T05:12:36;98879.66;;;9.24;100.00
70445;BME280;57902;49.638;11.070;2023-02-18T05:15:02;98883.06;;;9.26;100.00
70445;BME280;57902;49.638;11.070;2023-02-18T05:17:29;98880.50;;;9.23;100.00
70445;BME280;57902;49.638;11.070;2023-02-18T05:19:56;98875.38;;;9.22;100.00
70445;BME280;57902;49.638;11.070;2023-02-18T05:22:22;98872.78;;;9.23;100.00
70445;BME280;57902;49.638;11.070;2023-02-18T05:24:48;98872.72;;;9.30;100.00
70445;BME280;57902;49.638;11.070;2023-02-18T05:27:15;98872.78;;;9.26;100.00
70445;BME280;57902;49.638;11.070;2023-02-18T05:29:41;98865.91;;;9.25;100.00
70445;BME280;57902;49.638;11.070;2023-02-18T05:32:08;98866.81;;;9.21;100.00
70445;BME280;57902;49.638;11.070;2023-02-18T05:34:34;98862.50;;;9.23;100.00
70445;BME280;57902;49.638;11.070;2023-02-18T05:37:01;98862.47;;;9.26;100.00
70445;BME280;57902;49.638;11.070;2023-02-18T05:39:27;98862.47;;;9.26;100.00
70445;BME280;57902;49.638;11.070;2023-02-18T05:41:54;98861.59;;;9.27;100.00
70445;BME280;57902;49.638;11.070;2023-02-18T05:44:20;98863.38;;;9.24;100.00
70445;BME280;57902;49.638;11.070;2023-02-18T05:47:02;98855.72;;;9.19;100.00
70445;BME280;57902;49.638;11.070;2023-02-18T05:49:30;98849.78;;;9.14;100.00
70445;BME280;57902;49.638;11.070;2023-02-18T05:51:57;98852.22;;;9.23;100.00
70445;BME280;57902;49.638;11.070;2023-02-18T05:54:24;98853.97;;;9.21;100.00
70445;BME280;57902;49.638;11.070;2023-02-18T05:56:51;98850.59;;;9.19;100.00
70445;BME280;57902;49.638;11.070;2023-02-18T05:59:18;98858.31;;;9.18;100.00
70445;BME280;57902;49.638;11.070;2023-02-18T06:01:45;98857.38;;;9.22;100.00
70445;BME280;57902;49.638;11.070;2023-02-18T06:04:12;98854.00;;;9.20;100.00
70445;BME280;57902;49.638;11.070;2023-02-18T06:06:39;98853.97;;;9.21;100.00
70445;BME280;57902;49.638;11.070;2023-02-18T06:09:06;98851.41;;;9.20;100.00
70445;BME280;57902;49.638;11.070;2023-02-18T06:11:33;98853.19;;;9.18;100.00
70445;BME280;57902;49.638;11.070;2023-02-18T06:14:01;98849.69;;;9.20;100.00
70445;BME280;57902;49.638;11.070;2023-02-18T06:16:28;98844.50;;;9.22;100.00
70445;BME280;57902;49.638;11.070;2023-02-18T06:18:54;98845.44;;;9.19;100.00
70445;BME280;57902;49.638;11.070;2023-02-18T06:21:21;98843.81;;;9.14;100.00
70445;BME280;57902;49.638;11.070;2023-02-18T06:23:47;98839.44;;;9.17;100.00
70445;BME280;57902;49.638;11.070;2023-02-18T06:26:14;98835.16;;;9.18;100.00
70445;BME280;57902;49.638;11.070;2023-02-18T06:28:40;98834.22;;;9.22;100.00
70445;BME280;57902;49.638;11.070;2023-02-18T06:31:07;98835.16;;;9.19;100.00
70445;BME280;57902;49.638;11.070;2023-02-18T06:33:33;98834.31;;;9.17;100.00
70445;BME280;57902;49.638;11.070;2023-02-18T06:36:03;98835.97;;;9.20;100.00
70445;BME280;57902;49.638;11.070;2023-02-18T06:38:37;98839.47;;;9.16;100.00
70445;BME280;57902;49.638;11.070;2023-02-18T06:41:04;98833.41;;;9.20;100.00
70445;BME280;57902;49.638;11.070;2023-02-18T06:43:31;98836.84;;;9.19;100.00
70445;BME280;57902;49.638;11.070;2023-02-18T06:45:58;98829.06;;;9.25;100.00
70445;BME280;57902;49.638;11.070;2023-02-18T06:48:24;98830.69;;;9.29;100.00
70445;BME280;57902;49.638;11.070;2023-02-18T06:50:51;98829.81;;;9.32;100.00
70445;BME280;57902;49.638;11.070;2023-02-18T06:53:17;98827.31;;;9.27;100.00
70445;BME280;57902;49.638;11.070;2023-02-18T06:55:44;98831.59;;;9.28;100.00
70445;BME280;57902;49.638;11.070;2023-02-18T06:58:11;98836.75;;;9.26;100.00
70445;BME280;57902;49.638;11.070;2023-02-18T07:00:39;98836.78;;;9.23;100.00
70445;BME280;57902;49.638;11.070;2023-02-18T07:03:05;98829.94;;;9.22;100.00
70445;BME280;57902;49.638;11.070;2023-02-18T07:05:32;98830.63;;;9.32;100.00
70445;BME280;57902;49.638;11.070;2023-02-18T07:07:59;98827.19;;;9.33;100.00
70445;BME280;57902;49.638;11.070;2023-02-18T07:10:25;98823.72;;;9.36;100.00
70445;BME280;57902;49.638;11.070;2023-02-18T07:12:53;98828.06;;;9.32;100.00
70445;BME280;57902;49.638;11.070;2023-02-18T07:15:19;98822.91;;;9.34;100.00
70445;BME280;57902;49.638;11.070;2023-02-18T07:17:50;98815.16;;;9.37;100.00
70445;BME280;57902;49.638;11.070;2023-02-18T07:20:18;98817.72;;;9.37;100.00
70445;BME280;57902;49.638;11.070;2023-02-18T07:22:45;98813.28;;;9.45;100.00
70445;BME280;57902;49.638;11.070;2023-02-18T07:25:12;98819.16;;;9.53;100.00
70445;BME280;57902;49.638;11.070;2023-02-18T07:27:39;98819.13;;;9.56;100.00
70445;BME280;57902;49.638;11.070;2023-02-18T07:30:06;98824.22;;;9.58;100.00
70445;BME280;57902;49.638;11.070;2023-02-18T07:32:33;98820.84;;;9.54;100.00
70445;BME280;57902;49.638;11.070;2023-02-18T07:34:59;98820.88;;;9.53;100.00
70445;BME280;57902;49.638;11.070;2023-02-18T07:37:26;98811.47;;;9.52;100.00
70445;BME280;57902;49.638;11.070;2023-02-18T07:39:52;98808.88;;;9.53;100.00
70445;BME280;57902;49.638;11.070;2023-02-18T07:42:19;98806.22;;;9.58;100.00
70445;BME280;57902;49.638;11.070;2023-02-18T07:44:45;98813.97;;;9.56;100.00
70445;BME280;57902;49.638;11.070;2023-02-18T07:47:14;98813.09;;;9.57;100.00
70445;BME280;57902;49.638;11.070;2023-02-18T07:49:42;98810.53;;;9.57;100.00
70445;BME280;57902;49.638;11.070;2023-02-18T07:52:08;98812.94;;;9.67;100.00
70445;BME280;57902;49.638;11.070;2023-02-18T07:54:35;98812.03;;;9.69;100.00
70445;BME280;57902;49.638;11.070;2023-02-18T07:57:01;98801.69;;;9.72;100.00
70445;BME280;57902;49.638;11.070;2023-02-18T07:59:28;98798.25;;;9.70;100.00
70445;BME280;57902;49.638;11.070;2023-02-18T08:01:55;98805.03;;;9.76;100.00
70445;BME280;57902;49.638;11.070;2023-02-18T08:04:22;98801.69;;;9.72;100.00
70445;BME280;57902;49.638;11.070;2023-02-18T08:06:48;98796.34;;;9.81;100.00
70445;BME280;57902;49.638;11.070;2023-02-18T08:09:16;98798.84;;;9.86;100.00
70445;BME280;57902;49.638;11.070;2023-02-18T08:11:43;98806.50;;;9.89;100.00
70445;BME280;57902;49.638;11.070;2023-02-18T08:14:10;98797.78;;;9.96;100.00
70445;BME280;57902;49.638;11.070;2023-02-18T08:16:36;98796.13;;;9.95;100.00
70445;BME280;57902;49.638;11.070;2023-02-18T08:19:03;98798.53;;;10.03;100.00
70445;BME280;57902;49.638;11.070;2023-02-18T08:21:29;98789.78;;;10.12;100.00
70445;BME280;57902;49.638;11.070;2023-02-18T08:23:57;98788.84;;;10.16;100.00
70445;BME280;57902;49.638;11.070;2023-02-18T08:26:24;98786.09;;;10.25;100.00
70445;BME280;57902;49.638;11.070;2023-02-18T08:28:50;98780.53;;;10.47;100.00
70445;BME280;57902;49.638;11.070;2023-02-18T08:31:23;98771.59;;;10.62;100.00
70445;BME280;57902;49.638;11.070;2023-02-18T08:33:52;98775.19;;;10.92;100.00
70445;BME280;57902;49.638;11.070;2023-02-18T08:36:19;98760.69;;;11.24;100.00
70445;BME280;57902;49.638;11.070;2023-02-18T08:38:46;98765.03;;;11.56;100.00
70445;BME280;57902;49.638;11.070;2023-02-18T08:41:13;98767.59;;;11.91;100.00
70445;BME280;57902;49.638;11.070;2023-02-18T08:43:40;98762.34;;;12.25;97.75
70445;BME280;57902;49.638;11.070;2023-02-18T08:46:07;98755.03;;;12.68;92.76
70445;BME280;57902;49.638;11.070;2023-02-18T08:48:41;98761.72;;;12.75;90.28
70445;BME280;57902;49.638;11.070;2023-02-18T08:51:13;98751.75;;;12.91;88.86
70445;BME280;57902;49.638;11.070;2023-02-18T08:53:39;98756.50;;;12.77;88.79
70445;BME280;57902;49.638;11.070;2023-02-18T08:56:08;98744.75;;;12.95;86.05
70445;BME280;57902;49.638;11.070;2023-02-18T08:58:35;98745.53;;;12.97;86.15
70445;BME280;57902;49.638;11.070;2023-02-18T09:01:05;98737.91;;;12.92;86.41
70445;BME280;57902;49.638;11.070;2023-02-18T09:03:33;98742.38;;;12.87;88.11
70445;BME280;57902;49.638;11.070;2023-02-18T09:06:00;98732.13;;;13.11;84.60
70445;BME280;57902;49.638;11.070;2023-02-18T09:08:27;98723.16;;;13.21;84.55
70445;BME280;57902;49.638;11.070;2023-02-18T09:10:56;98728.91;;;13.31;81.53
70445;BME280;57902;49.638;11.070;2023-02-18T09:13:23;98721.41;;;13.23;81.32
70445;BME280;57902;49.638;11.070;2023-02-18T09:16:01;98724.72;;;13.00;82.83
70445;BME280;57902;49.638;11.070;2023-02-18T09:18:29;98723.44;;;12.87;83.61
70445;BME280;57902;49.638;11.070;2023-02-18T09:20:57;98731.97;;;12.62;85.32
70445;BME280;57902;49.638;11.070;2023-02-18T09:23:25;98739.13;;;12.54;84.45
70445;BME280;57902;49.638;11.070;2023-02-18T09:25:53;98730.09;;;12.37;85.84
70445;BME280;57902;49.638;11.070;2023-02-18T09:28:19;98733.47;;;12.41;85.90
70445;BME280;57902;49.638;11.070;2023-02-18T09:30:46;98735.50;;;12.30;86.81
70445;BME280;57902;49.638;11.070;2023-02-18T09:33:13;98737.47;;;12.21;87.24
70445;BME280;57902;49.638;11.070;2023-02-18T09:35:44;98719.75;;;12.09;89.62
70445;BME280;57902;49.638;11.070;2023-02-18T09:38:13;98728.38;;;12.08;89.99
70445;BME280;57902;49.638;11.070;2023-02-18T09:40:46;98727.44;;;12.11;89.67
70445;BME280;57902;49.638;11.070;2023-02-18T09:43:26;98718.91;;;12.08;88.84
70445;BME280;57902;49.638;11.070;2023-02-18T09:45:55;98715.69;;;12.00;89.19
70445;BME280;57902;49.638;11.070;2023-02-18T09:48:26;98721.91;;;11.93;90.07
70445;BME280;57902;49.638;11.070;2023-02-18T09:50:53;98709.78;;;11.97;88.63
70445;BME280;57902;49.638;11.070;2023-02-18T09:53:22;98716.19;;;11.80;89.93
70445;BME280;57902;49.638;11.070;2023-02-18T09:55:50;98719.00;;;11.72;90.29
70445;BME280;57902;49.638;11.070;2023-02-18T09:58:22;98713.13;;;11.67;91.30
70445;BME280;57902;49.638;11.070;2023-02-18T10:00:55;98694.13;;;11.68;91.77
70445;BME280;57902;49.638;11.070;2023-02-18T10:03:25;98699.06;;;11.78;91.71
70445;BME280;57902;49.638;11.070;2023-02-18T10:05:56;98698.91;;;11.84;91.17
70445;BME280;57902;49.638;11.070;2023-02-18T10:08:29;98710.75;;;11.91;90.23
70445;BME280;57902;49.638;11.070;2023-02-18T10:10:57;98699.69;;;11.86;90.47
70445;BME280;57902;49.638;11.070;2023-02-18T10:13:27;98693.72;;;11.84;91.58
70445;BME280;57902;49.638;11.070;2023-02-18T10:15:54;98698.16;;;11.79;90.87
70445;BME280;57902;49.638;11.070;2023-02-18T10:18:26;98698.16;;;11.79;89.39
70445;BME280;57902;49.638;11.070;2023-02-18T10:21:11;98701.59;;;11.79;89.94
70445;BME280;57902;49.638;11.070;2023-02-18T10:23:42;98680.91;;;11.81;89.40
70445;BME280;57902;49.638;11.070;2023-02-18T10:26:16;98686.03;;;11.82;89.16
70445;BME280;57902;49.638;11.070;2023-02-18T10:28:44;98670.06;;;11.99;88.03
70445;BME280;57902;49.638;11.070;2023-02-18T10:31:17;98678.47;;;12.06;88.04
70445;BME280;57902;49.638;11.070;2023-02-18T10:33:54;98681.81;;;12.10;87.73
70445;BME280;57902;49.638;11.070;2023-02-18T10:39:17;98672.53;;;12.02;85.92
70445;BME280;57902;49.638;11.070;2023-02-18T10:42:11;98673.50;;;12.00;87.09
70445;BME280;57902;49.638;11.070;2023-02-18T10:47:35;98664.22;;;11.93;86.50
70445;BME280;57902;49.638;11.070;2023-02-18T10:52:40;98669.38;;;11.93;85.24
70445;BME280;57902;49.638;11.070;2023-02-18T10:55:10;98660.81;;;11.90;84.94
70445;BME280;57902;49.638;11.070;2023-02-18T10:57:51;98660.88;;;11.87;85.25
70445;BME280;57902;49.638;11.070;2023-02-18T11:00:22;98656.63;;;11.86;85.30
70445;BME280;57902;49.638;11.070;2023-02-18T11:03:17;98655.88;;;11.83;85.51
70445;BME280;57902;49.638;11.070;2023-02-18T11:05:46;98649.91;;;11.81;86.21
70445;BME280;57902;49.638;11.070;2023-02-18T11:08:18;98652.66;;;11.75;86.74
70445;BME280;57902;49.638;11.070;2023-02-18T11:10:47;98645.53;;;11.83;85.40
70445;BME280;57902;49.638;11.070;2023-02-18T11:13:17;98636.06;;;11.82;85.45
70445;BME280;57902;49.638;11.070;2023-02-18T11:16:14;98645.81;;;11.73;86.23
70445;BME280;57902;49.638;11.070;2023-02-18T11:18:44;98638.72;;;11.80;84.80
70445;BME280;57902;49.638;11.070;2023-02-18T11:21:22;98633.53;;;11.80;84.84
70445;BME280;57902;49.638;11.070;2023-02-18T11:23:51;98637.00;;;11.81;85.01
70445;BME280;57902;49.638;11.070;2023-02-18T11:26:26;98620.44;;;11.88;84.42
70445;BME280;57902;49.638;11.070;2023-02-18T11:28:58;98621.31;;;11.87;85.14
70445;BME280;57902;49.638;11.070;2023-02-18T11:31:35;98622.16;;;11.87;85.56
70445;BME280;57902;49.638;11.070;2023-02-18T11:34:05;98626.47;;;11.87;86.08
70445;BME280;57902;49.638;11.070;2023-02-18T11:36:33;98621.22;;;11.90;85.76
70445;BME280;57902;49.638;11.070;2023-02-18T11:39:04;98607.25;;;11.97;83.16
70445;BME280;57902;49.638;11.070;2023-02-18T11:41:33;98616.47;;;12.06;82.95
70445;BME280;57902;49.638;11.070;2023-02-18T11:44:02;98609.56;;;12.06;83.12
70445;BME280;57902;49.638;11.070;2023-02-18T11:46:30;98606.22;;;12.03;83.20
70445;BME280;57902;49.638;11.070;2023-02-18T11:49:10;98620.28;;;11.94;83.41
70445;BME280;57902;49.638;11.070;2023-02-18T11:51:47;98608.91;;;12.00;82.97
70445;BME280;57902;49.638;11.070;2023-02-18T11:54:40;98606.31;;;12.00;83.22
70445;BME280;57902;49.638;11.070;2023-02-18T11:57:11;98590.78;;;12.01;83.47
70445;BME280;57902;49.638;11.070;2023-02-18T11:59:39;98595.84;;;12.04;83.69
70445;BME280;57902;49.638;11.070;2023-02-18T12:04:51;98583.50;;;12.13;83.65
70445;BME280;57902;49.638;11.070;2023-02-18T12:07:25;98568.69;;;12.19;82.86
70445;BME280;57902;49.638;11.070;2023-02-18T12:09:57;98571.00;;;12.27;82.53
70445;BME280;57902;49.638;11.070;2023-02-18T12:12:29;98569.03;;;12.35;81.21
70445;BME280;57902;49.638;11.070;2023-02-18T12:14:58;98570.59;;;12.41;81.53
70445;BME280;57902;49.638;11.070;2023-02-18T12:20:33;98580.94;;;12.41;81.50
70445;BME280;57902;49.638;11.070;2023-02-18T12:23:17;98568.88;;;12.40;81.33
70445;BME280;57902;49.638;11.070;2023-02-18T12:32:26;98567.94;;;12.42;80.07
70445;BME280;57902;49.638;11.070;2023-02-18T12:35:09;98567.94;;;12.42;79.44
70445;BME280;57902;49.638;11.070;2023-02-18T12:49:32;98553.94;;;12.50;78.85
70445;BME280;57902;49.638;11.070;2023-02-18T12:52:01;98560.75;;;12.51;79.20
70445;BME280;57902;49.638;11.070;2023-02-18T12:54:46;98560.72;;;12.52;79.22
70445;BME280;57902;49.638;11.070;2023-02-18T13:03:01;98555.91;;;12.41;80.52
70445;BME280;57902;49.638;11.070;2023-02-18T13:12:09;98542.41;;;12.33;81.05
70445;BME280;57902;49.638;11.070;2023-02-18T13:14:21;98540.91;;;12.26;80.73
70445;BME280;57902;49.638;11.070;2023-02-18T13:16:51;98548.94;;;12.17;81.98
70445;BME280;57902;49.638;11.070;2023-02-18T13:19:23;98550.03;;;12.10;82.68
70445;BME280;57902;49.638;11.070;2023-02-18T13:21:55;98553.88;;;11.96;82.88
70445;BME280;57902;49.638;11.070;2023-02-18T13:24:35;98548.09;;;11.88;81.89
70445;BME280;57902;49.638;11.070;2023-02-18T13:27:28;98539.72;;;11.80;81.99
70445;BME280;57902;49.638;11.070;2023-02-18T13:35:51;98558.34;;;11.61;82.62
70445;BME280;57902;49.638;11.070;2023-02-18T13:41:19;98536.72;;;11.65;82.55
70445;BME280;57902;49.638;11.070;2023-02-18T13:43:46;98544.22;;;11.73;81.81
70445;BME280;57902;49.638;11.070;2023-02-18T13:46:16;98551.03;;;11.76;81.89
70445;BME280;57902;49.638;11.070;2023-02-18T13:51:43;98521.94;;;11.70;81.25
70445;BME280;57902;49.638;11.070;2023-02-18T13:56:59;98531.00;;;11.84;81.05
70445;BME280;57902;49.638;11.070;2023-02-18T13:59:38;98543.66;;;11.93;79.78
70445;BME280;57902;49.638;11.070;2023-02-18T14:09:42;98542.72;;;11.96;79.21
70445;BME280;57902;49.638;11.070;2023-02-18T14:14:53;98532.19;;;12.02;78.08
70445;BME280;57902;49.638;11.070;2023-02-18T14:22:45;98525.19;;;12.05;77.78
70445;BME280;57902;49.638;11.070;2023-02-18T14:25:34;98523.53;;;12.03;77.97
70445;BME280;57902;49.638;11.070;2023-02-18T14:33:31;98531.16;;;12.07;76.58
70445;BME280;57902;49.638;11.070;2023-02-18T14:36:17;98533.03;;;12.02;77.05
70445;BME280;57902;49.638;11.070;2023-02-18T14:39:05;98530.53;;;11.99;77.84
70445;BME280;57902;49.638;11.070;2023-02-18T14:44:38;98537.31;;;12.03;79.15
70445;BME280;57902;49.638;11.070;2023-02-18T14:47:43;98536.56;;;12.00;79.07
70445;BME280;57902;49.638;11.070;2023-02-18T14:50:15;98537.50;;;11.97;79.29
70445;BME280;57902;49.638;11.070;2023-02-18T14:52:49;98537.44;;;11.99;79.03
70445;BME280;57902;49.638;11.070;2023-02-18T14:55:26;98543.53;;;11.96;78.97
70445;BME280;57902;49.638;11.070;2023-02-18T14:58:01;98554.25;;;11.84;79.39